DNO063 LGIK-LGMK
Flight info
| Callsign | DNO063 |
|---|---|
| Flight time | 0h 22m |
| Altitude | 4500 |
| Route | ARMENISTIS LETSO LIVADI KOUNOUPAS |
| Aircraft | C208/L-SDFGR/C |
Departure
| Time | 2026-05-07 09:13 |
|---|---|
| Airport | Ikaria Airport (LGIK) |
Arrival
| Time | 2026-05-07 09:35 |
|---|---|
| Airport | Mykonos Island National Airport (LGMK) |
| Time | Latitude | Longitude | Altitude | Speed | Heading |
|---|---|---|---|---|---|
| 2026-05-07 09:02 | 37.68359 | 26.34476 | 87 ft | 0 kts | 328° |
| 2026-05-07 09:10 | 37.68370 | 26.34477 | 87 ft | 6 kts | 43° |
| 2026-05-07 09:10 | 37.68336 | 26.34571 | 88 ft | 19 kts | 108° |
| 2026-05-07 09:10 | 37.68291 | 26.34690 | 90 ft | 24 kts | 150° |
| 2026-05-07 09:11 | 37.68145 | 26.34793 | 87 ft | 25 kts | 151° |
| 2026-05-07 09:11 | 37.67999 | 26.34894 | 87 ft | 26 kts | 150° |
| 2026-05-07 09:11 | 37.67849 | 26.35000 | 88 ft | 26 kts | 154° |
| 2026-05-07 09:11 | 37.67746 | 26.35043 | 87 ft | 16 kts | 170° |
| 2026-05-07 09:12 | 37.67747 | 26.35063 | 87 ft | 0 kts | 331° |
| 2026-05-07 09:12 | 37.67807 | 26.35022 | 89 ft | 36 kts | 331° |
| 2026-05-07 09:12 | 37.68213 | 26.34752 | 118 ft | 88 kts | 334° |
| 2026-05-07 09:12 | 37.68728 | 26.34444 | 433 ft | 88 kts | 338° |
| 2026-05-07 09:13 | 37.69300 | 26.34097 | 729 ft | 94 kts | 336° |
| 2026-05-07 09:13 | 37.69792 | 26.33544 | 980 ft | 101 kts | 297° |
| 2026-05-07 09:13 | 37.69869 | 26.32640 | 1150 ft | 112 kts | 247° |
| 2026-05-07 09:13 | 37.69472 | 26.31733 | 1345 ft | 127 kts | 247° |
| 2026-05-07 09:14 | 37.69169 | 26.30632 | 1543 ft | 139 kts | 250° |
| 2026-05-07 09:14 | 37.68833 | 26.29448 | 1742 ft | 147 kts | 250° |
| 2026-05-07 09:14 | 37.68492 | 26.28207 | 1938 ft | 152 kts | 253° |
| 2026-05-07 09:14 | 37.68226 | 26.26895 | 2126 ft | 156 kts | 255° |
| 2026-05-07 09:15 | 37.67962 | 26.25576 | 2307 ft | 158 kts | 255° |
| 2026-05-07 09:15 | 37.67689 | 26.24227 | 2488 ft | 159 kts | 255° |
| 2026-05-07 09:15 | 37.67413 | 26.22870 | 2665 ft | 159 kts | 255° |
| 2026-05-07 09:15 | 37.67138 | 26.21519 | 2839 ft | 161 kts | 255° |
| 2026-05-07 09:16 | 37.66855 | 26.20147 | 3015 ft | 161 kts | 255° |
| 2026-05-07 09:16 | 37.66574 | 26.18786 | 3188 ft | 162 kts | 255° |
| 2026-05-07 09:16 | 37.66288 | 26.17400 | 3337 ft | 164 kts | 255° |
| 2026-05-07 09:16 | 37.65995 | 26.15997 | 3464 ft | 166 kts | 255° |
| 2026-05-07 09:17 | 37.65698 | 26.14577 | 3594 ft | 168 kts | 255° |
| 2026-05-07 09:17 | 37.65402 | 26.13148 | 3725 ft | 169 kts | 255° |
| 2026-05-07 09:17 | 37.65105 | 26.11716 | 3846 ft | 169 kts | 255° |
| 2026-05-07 09:17 | 37.64803 | 26.10278 | 3970 ft | 170 kts | 255° |
| 2026-05-07 09:18 | 37.64502 | 26.08839 | 4097 ft | 170 kts | 255° |
| 2026-05-07 09:18 | 37.64201 | 26.07400 | 4221 ft | 169 kts | 255° |
| 2026-05-07 09:18 | 37.63899 | 26.05966 | 4345 ft | 170 kts | 255° |
| 2026-05-07 09:18 | 37.63595 | 26.04523 | 4467 ft | 170 kts | 255° |
| 2026-05-07 09:19 | 37.63286 | 26.03064 | 4496 ft | 175 kts | 255° |
| 2026-05-07 09:19 | 37.62963 | 26.01560 | 4501 ft | 178 kts | 255° |
| 2026-05-07 09:19 | 37.62635 | 26.00043 | 4503 ft | 179 kts | 255° |
| 2026-05-07 09:19 | 37.62050 | 25.98695 | 4487 ft | 177 kts | 222° |
| 2026-05-07 09:20 | 37.60964 | 25.97995 | 4494 ft | 175 kts | 199° |
| 2026-05-07 09:20 | 37.59823 | 25.97471 | 4492 ft | 175 kts | 205° |
| 2026-05-07 09:20 | 37.58870 | 25.96526 | 4497 ft | 175 kts | 222° |
| 2026-05-07 09:20 | 37.58045 | 25.95395 | 4495 ft | 176 kts | 235° |
| 2026-05-07 09:21 | 37.57455 | 25.94066 | 4503 ft | 177 kts | 243° |
| 2026-05-07 09:21 | 37.56904 | 25.92681 | 4503 ft | 177 kts | 243° |
| 2026-05-07 09:21 | 37.56340 | 25.91305 | 4504 ft | 177 kts | 242° |
| 2026-05-07 09:21 | 37.55771 | 25.89929 | 4501 ft | 177 kts | 242° |
| 2026-05-07 09:22 | 37.55202 | 25.88555 | 4503 ft | 177 kts | 242° |
| 2026-05-07 09:22 | 37.54635 | 25.87181 | 4505 ft | 177 kts | 242° |
| 2026-05-07 09:22 | 37.54066 | 25.85806 | 4503 ft | 177 kts | 242° |
| 2026-05-07 09:22 | 37.53495 | 25.84430 | 4500 ft | 177 kts | 242° |
| 2026-05-07 09:23 | 37.52925 | 25.83056 | 4502 ft | 177 kts | 242° |
| 2026-05-07 09:23 | 37.52354 | 25.81680 | 4502 ft | 177 kts | 242° |
| 2026-05-07 09:23 | 37.51786 | 25.80309 | 4501 ft | 177 kts | 242° |
| 2026-05-07 09:23 | 37.51216 | 25.78935 | 4499 ft | 177 kts | 242° |
| 2026-05-07 09:24 | 37.50644 | 25.77558 | 4498 ft | 177 kts | 242° |
| 2026-05-07 09:24 | 37.50082 | 25.76203 | 4498 ft | 177 kts | 242° |
| 2026-05-07 09:24 | 37.49512 | 25.74830 | 4499 ft | 177 kts | 242° |
| 2026-05-07 09:24 | 37.48940 | 25.73453 | 4499 ft | 177 kts | 242° |
| 2026-05-07 09:25 | 37.48368 | 25.72080 | 4497 ft | 177 kts | 242° |
| 2026-05-07 09:25 | 37.47798 | 25.70709 | 4497 ft | 177 kts | 242° |
| 2026-05-07 09:25 | 37.47228 | 25.69339 | 4496 ft | 177 kts | 242° |
| 2026-05-07 09:25 | 37.46656 | 25.67965 | 4497 ft | 177 kts | 242° |
| 2026-05-07 09:26 | 37.46087 | 25.66596 | 4496 ft | 177 kts | 242° |
| 2026-05-07 09:26 | 37.45655 | 25.65159 | 4497 ft | 177 kts | 261° |
| 2026-05-07 09:26 | 37.45477 | 25.63642 | 4498 ft | 177 kts | 261° |
| 2026-05-07 09:26 | 37.45262 | 25.62105 | 4497 ft | 177 kts | 260° |
| 2026-05-07 09:27 | 37.45049 | 25.60579 | 4498 ft | 177 kts | 260° |
| 2026-05-07 09:27 | 37.44840 | 25.59047 | 4498 ft | 177 kts | 260° |
| 2026-05-07 09:27 | 37.44420 | 25.55991 | 4498 ft | 177 kts | 260° |
| 2026-05-07 09:28 | 37.44213 | 25.54487 | 4325 ft | 162 kts | 261° |
| 2026-05-07 09:28 | 37.44097 | 25.53596 | 4069 ft | 151 kts | 261° |
| 2026-05-07 09:28 | 37.43928 | 25.52326 | 3649 ft | 144 kts | 261° |
| 2026-05-07 09:28 | 37.43704 | 25.50710 | 3096 ft | 140 kts | 260° |
| 2026-05-07 09:29 | 37.43537 | 25.49512 | 2688 ft | 138 kts | 260° |
| 2026-05-07 09:29 | 37.43374 | 25.48326 | 2339 ft | 134 kts | 259° |
| 2026-05-07 09:29 | 37.43268 | 25.47565 | 2192 ft | 128 kts | 259° |
| 2026-05-07 09:29 | 37.43072 | 25.46152 | 1904 ft | 122 kts | 259° |
| 2026-05-07 09:30 | 37.42976 | 25.45448 | 1751 ft | 120 kts | 259° |
| 2026-05-07 09:30 | 37.42836 | 25.44431 | 1545 ft | 119 kts | 259° |
| 2026-05-07 09:30 | 37.42700 | 25.43448 | 1491 ft | 109 kts | 258° |
| 2026-05-07 09:30 | 37.42567 | 25.42507 | 1495 ft | 109 kts | 258° |
| 2026-05-07 09:31 | 37.42568 | 25.41560 | 1494 ft | 112 kts | 288° |
| 2026-05-07 09:31 | 37.42809 | 25.40680 | 1495 ft | 112 kts | 286° |
| 2026-05-07 09:31 | 37.43036 | 25.39714 | 1502 ft | 118 kts | 286° |
| 2026-05-07 09:31 | 37.43279 | 25.38721 | 1510 ft | 120 kts | 287° |
| 2026-05-07 09:32 | 37.43516 | 25.37731 | 1508 ft | 116 kts | 286° |
| 2026-05-07 09:32 | 37.43693 | 25.36732 | 1504 ft | 118 kts | 281° |
| 2026-05-07 09:32 | 37.44203 | 25.35989 | 1498 ft | 113 kts | 338° |
| 2026-05-07 09:32 | 37.44903 | 25.35576 | 1515 ft | 109 kts | 334° |
| 2026-05-07 09:33 | 37.45570 | 25.35148 | 1506 ft | 106 kts | 335° |
| 2026-05-07 09:33 | 37.46221 | 25.34734 | 1507 ft | 105 kts | 335° |
| 2026-05-07 09:33 | 37.46668 | 25.34181 | 1670 ft | 82 kts | 283° |
| 2026-05-07 09:33 | 37.46469 | 25.33549 | 1581 ft | 86 kts | 210° |
| 2026-05-07 09:34 | 37.45907 | 25.33605 | 1350 ft | 86 kts | 149° |
| 2026-05-07 09:34 | 37.45379 | 25.33979 | 900 ft | 90 kts | 158° |
| 2026-05-07 09:34 | 37.44809 | 25.34244 | 558 ft | 82 kts | 160° |
| 2026-05-07 09:34 | 37.44336 | 25.34457 | 434 ft | 70 kts | 162° |
| 2026-05-07 09:35 | 37.43920 | 25.34639 | 410 ft | 53 kts | 160° |
| 2026-05-07 09:35 | 37.43716 | 25.34729 | 409 ft | 11 kts | 166° |
| 2026-05-07 09:35 | 37.43639 | 25.34686 | 407 ft | 19 kts | 212° |
| 2026-05-07 09:35 | 37.43624 | 25.34661 | 406 ft | 4 kts | 303° |
| 2026-05-07 09:36 | 37.43619 | 25.34608 | 406 ft | 7 kts | 253° |
| 2026-05-07 09:36 | 37.43615 | 25.34590 | 405 ft | 0 kts | 249° |